sensor_id;sensor_type;location;lat;lon;timestamp;pressure;altitude;pressure_sealevel;temperature;humidity
35224;BME280;21367;51.930;8.112;2023-04-30T00:04:38;101675.97;;;7.89;91.33
35224;BME280;21367;51.930;8.112;2023-04-30T00:09:44;101682.13;;;7.79;91.51
35224;BME280;21367;51.930;8.112;2023-04-30T00:14:49;101684.94;;;7.71;91.88
35224;BME280;21367;51.930;8.112;2023-04-30T00:19:58;101679.47;;;7.78;91.56
35224;BME280;21367;51.930;8.112;2023-04-30T00:25:02;101685.44;;;7.53;93.69
35224;BME280;21367;51.930;8.112;2023-04-30T00:30:07;101677.94;;;7.43;93.10
35224;BME280;21367;51.930;8.112;2023-04-30T00:35:14;101684.13;;;7.47;92.45
35224;BME280;21367;51.930;8.112;2023-04-30T00:40:19;101688.25;;;7.45;92.35
35224;BME280;21367;51.930;8.112;2023-04-30T00:45:26;101689.06;;;7.32;92.63
35224;BME280;21367;51.930;8.112;2023-04-30T00:50:34;101702.41;;;7.28;92.04
35224;BME280;21367;51.930;8.112;2023-04-30T00:55:39;101703.22;;;7.15;92.22
35224;BME280;21367;51.930;8.112;2023-04-30T01:00:43;101706.41;;;7.12;93.33
35224;BME280;21367;51.930;8.112;2023-04-30T01:05:50;101717.22;;;7.08;92.57
35224;BME280;21367;51.930;8.112;2023-04-30T01:11:03;101720.53;;;7.07;92.95
35224;BME280;21367;51.930;8.112;2023-04-30T01:16:14;101726.63;;;6.98;94.69
35224;BME280;21367;51.930;8.112;2023-04-30T01:21:23;101717.41;;;6.88;94.48
35224;BME280;21367;51.930;8.112;2023-04-30T01:26:42;101713.41;;;6.80;95.20
35224;BME280;21367;51.930;8.112;2023-04-30T01:31:53;101722.31;;;6.85;94.59
35224;BME280;21367;51.930;8.112;2023-04-30T01:37:07;101719.44;;;6.80;93.38
35224;BME280;21367;51.930;8.112;2023-04-30T01:42:19;101718.31;;;6.65;94.36
35224;BME280;21367;51.930;8.112;2023-04-30T01:47:33;101727.72;;;6.66;94.57
35224;BME280;21367;51.930;8.112;2023-04-30T01:52:45;101728.06;;;6.59;94.28
35224;BME280;21367;51.930;8.112;2023-04-30T01:57:55;101719.59;;;6.60;94.14
35224;BME280;21367;51.930;8.112;2023-04-30T02:03:03;101726.78;;;6.42;95.07
35224;BME280;21367;51.930;8.112;2023-04-30T02:08:07;101726.81;;;6.54;93.99
35224;BME280;21367;51.930;8.112;2023-04-30T02:13:10;101729.88;;;6.38;95.26
35224;BME280;21367;51.930;8.112;2023-04-30T02:18:17;101738.09;;;6.34;95.12
35224;BME280;21367;51.930;8.112;2023-04-30T02:23:20;101734.75;;;6.35;95.74
35224;BME280;21367;51.930;8.112;2023-04-30T02:28:27;101746.03;;;5.83;96.80
35224;BME280;21367;51.930;8.112;2023-04-30T02:33:33;101748.03;;;6.19;97.08
35224;BME280;21367;51.930;8.112;2023-04-30T02:38:37;101747.50;;;6.01;98.26
35224;BME280;21367;51.930;8.112;2023-04-30T02:43:40;101750.09;;;5.69;100.00
35224;BME280;21367;51.930;8.112;2023-04-30T02:48:47;101753.78;;;6.16;98.75
35224;BME280;21367;51.930;8.112;2023-04-30T02:53:50;101753.47;;;6.23;98.86
35224;BME280;21367;51.930;8.112;2023-04-30T02:58:54;101764.63;;;6.36;98.11
35224;BME280;21367;51.930;8.112;2023-04-30T03:04:01;101768.41;;;6.41;97.67
35224;BME280;21367;51.930;8.112;2023-04-30T03:09:04;101769.06;;;6.38;98.97
35224;BME280;21367;51.930;8.112;2023-04-30T03:14:08;101768.19;;;6.38;97.91
35224;BME280;21367;51.930;8.112;2023-04-30T03:19:14;101767.66;;;6.20;98.81
35224;BME280;21367;51.930;8.112;2023-04-30T03:24:21;101768.44;;;6.19;96.87
35224;BME280;21367;51.930;8.112;2023-04-30T03:29:25;101768.16;;;6.04;97.37
35224;BME280;21367;51.930;8.112;2023-04-30T03:34:31;101770.94;;;6.07;98.03
35224;BME280;21367;51.930;8.112;2023-04-30T03:39:35;101776.03;;;6.07;97.71
35224;BME280;21367;51.930;8.112;2023-04-30T03:44:39;101770.47;;;6.01;97.50
35224;BME280;21367;51.930;8.112;2023-04-30T03:49:45;101769.72;;;6.02;96.25
35224;BME280;21367;51.930;8.112;2023-04-30T03:54:56;101760.91;;;5.98;95.72
35224;BME280;21367;51.930;8.112;2023-04-30T03:59:59;101763.22;;;5.95;95.23
35224;BME280;21367;51.930;8.112;2023-04-30T04:05:16;101762.38;;;5.85;95.41
35224;BME280;21367;51.930;8.112;2023-04-30T04:10:20;101759.16;;;5.87;95.23
35224;BME280;21367;51.930;8.112;2023-04-30T04:15:24;101754.41;;;5.92;95.40
35224;BME280;21367;51.930;8.112;2023-04-30T04:20:30;101753.28;;;5.88;95.04
35224;BME280;21367;51.930;8.112;2023-04-30T04:25:33;101755.13;;;5.79;94.97
35224;BME280;21367;51.930;8.112;2023-04-30T04:30:39;101762.03;;;5.80;94.90
35224;BME280;21367;51.930;8.112;2023-04-30T04:35:45;101758.44;;;5.78;95.30
35224;BME280;21367;51.930;8.112;2023-04-30T04:40:52;101761.00;;;5.78;96.33
35224;BME280;21367;51.930;8.112;2023-04-30T04:45:56;101768.25;;;5.84;97.82
35224;BME280;21367;51.930;8.112;2023-04-30T04:51:03;101771.44;;;5.81;98.51
35224;BME280;21367;51.930;8.112;2023-04-30T04:56:07;101776.38;;;5.90;98.76
35224;BME280;21367;51.930;8.112;2023-04-30T05:01:11;101775.81;;;6.04;98.32
35224;BME280;21367;51.930;8.112;2023-04-30T05:06:17;101773.03;;;5.69;100.00
35224;BME280;21367;51.930;8.112;2023-04-30T05:11:21;101780.09;;;6.15;99.84
35224;BME280;21367;51.930;8.112;2023-04-30T05:16:26;101768.13;;;6.14;99.69
35224;BME280;21367;51.930;8.112;2023-04-30T05:21:32;101769.16;;;6.06;100.00
35224;BME280;21367;51.930;8.112;2023-04-30T05:26:36;101773.59;;;5.87;100.00
35224;BME280;21367;51.930;8.112;2023-04-30T05:31:39;101774.06;;;6.37;100.00
35224;BME280;21367;51.930;8.112;2023-04-30T05:36:45;101773.50;;;5.75;100.00
35224;BME280;21367;51.930;8.112;2023-04-30T05:41:49;101778.56;;;6.29;100.00
35224;BME280;21367;51.930;8.112;2023-04-30T05:46:53;101778.53;;;6.39;100.00
35224;BME280;21367;51.930;8.112;2023-04-30T05:51:59;101788.56;;;6.04;100.00
35224;BME280;21367;51.930;8.112;2023-04-30T05:57:03;101797.53;;;5.99;100.00
35224;BME280;21367;51.930;8.112;2023-04-30T06:02:07;101801.84;;;6.44;100.00
35224;BME280;21367;51.930;8.112;2023-04-30T06:07:13;101808.25;;;6.39;100.00
35224;BME280;21367;51.930;8.112;2023-04-30T06:12:16;101812.75;;;6.53;100.00
35224;BME280;21367;51.930;8.112;2023-04-30T06:17:20;101801.44;;;6.49;100.00
35224;BME280;21367;51.930;8.112;2023-04-30T06:22:28;101805.72;;;6.72;100.00
35224;BME280;21367;51.930;8.112;2023-04-30T06:27:32;101804.84;;;6.84;100.00
35224;BME280;21367;51.930;8.112;2023-04-30T06:32:35;101809.72;;;6.92;100.00
35224;BME280;21367;51.930;8.112;2023-04-30T06:37:42;101808.31;;;6.96;98.59
35224;BME280;21367;51.930;8.112;2023-04-30T06:42:46;101810.03;;;7.31;98.62
35224;BME280;21367;51.930;8.112;2023-04-30T06:47:50;101813.56;;;7.33;97.36
35224;BME280;21367;51.930;8.112;2023-04-30T06:52:56;101815.00;;;7.64;94.18
35224;BME280;21367;51.930;8.112;2023-04-30T06:58:00;101812.66;;;7.68;94.15
35224;BME280;21367;51.930;8.112;2023-04-30T07:03:05;101818.69;;;8.05;93.18
35224;BME280;21367;51.930;8.112;2023-04-30T07:08:11;101810.81;;;8.02;91.28
35224;BME280;21367;51.930;8.112;2023-04-30T07:13:15;101809.88;;;8.25;90.39
35224;BME280;21367;51.930;8.112;2023-04-30T07:18:18;101808.28;;;8.39;88.34
35224;BME280;21367;51.930;8.112;2023-04-30T07:23:25;101809.72;;;8.60;87.47
35224;BME280;21367;51.930;8.112;2023-04-30T07:28:28;101810.44;;;8.71;87.74
35224;BME280;21367;51.930;8.112;2023-04-30T07:33:32;101809.16;;;9.02;85.77
35224;BME280;21367;51.930;8.112;2023-04-30T07:38:38;101810.66;;;9.25;87.42
35224;BME280;21367;51.930;8.112;2023-04-30T07:43:42;101803.53;;;9.48;84.96
35224;BME280;21367;51.930;8.112;2023-04-30T07:48:45;101809.03;;;9.01;83.15
35224;BME280;21367;51.930;8.112;2023-04-30T07:53:52;101811.13;;;9.73;80.97
35224;BME280;21367;51.930;8.112;2023-04-30T07:58:56;101808.59;;;9.60;82.59
35224;BME280;21367;51.930;8.112;2023-04-30T08:03:59;101815.00;;;10.08;80.71
35224;BME280;21367;51.930;8.112;2023-04-30T08:09:05;101816.25;;;10.28;80.49
35224;BME280;21367;51.930;8.112;2023-04-30T08:14:09;101819.72;;;10.28;78.98
35224;BME280;21367;51.930;8.112;2023-04-30T08:19:13;101807.34;;;10.36;76.91
35224;BME280;21367;51.930;8.112;2023-04-30T08:24:19;101809.81;;;10.21;78.60
35224;BME280;21367;51.930;8.112;2023-04-30T08:29:23;101818.16;;;10.88;75.07
35224;BME280;21367;51.930;8.112;2023-04-30T08:34:27;101814.16;;;11.08;76.23
35224;BME280;21367;51.930;8.112;2023-04-30T08:39:33;101825.88;;;11.32;75.25
35224;BME280;21367;51.930;8.112;2023-04-30T08:44:37;101816.00;;;11.71;76.64
35224;BME280;21367;51.930;8.112;2023-04-30T08:49:44;101805.59;;;11.53;73.22
35224;BME280;21367;51.930;8.112;2023-04-30T08:54:51;101807.34;;;11.69;71.94
35224;BME280;21367;51.930;8.112;2023-04-30T08:59:57;101795.69;;;12.07;67.27
35224;BME280;21367;51.930;8.112;2023-04-30T09:05:00;101803.06;;;11.70;70.42
35224;BME280;21367;51.930;8.112;2023-04-30T09:10:13;101799.63;;;12.00;69.33
35224;BME280;21367;51.930;8.112;2023-04-30T09:15:17;101794.69;;;12.21;68.68
35224;BME280;21367;51.930;8.112;2023-04-30T09:20:21;101798.09;;;12.20;68.30
35224;BME280;21367;51.930;8.112;2023-04-30T09:25:37;101796.56;;;12.57;67.11
35224;BME280;21367;51.930;8.112;2023-04-30T09:30:42;101797.31;;;12.72;67.55
35224;BME280;21367;51.930;8.112;2023-04-30T09:35:46;101799.56;;;12.66;69.02
35224;BME280;21367;51.930;8.112;2023-04-30T09:40:52;101789.97;;;13.50;64.69
35224;BME280;21367;51.930;8.112;2023-04-30T09:45:57;101789.28;;;13.89;64.87
35224;BME280;21367;51.930;8.112;2023-04-30T09:51:02;101788.47;;;13.19;67.71
35224;BME280;21367;51.930;8.112;2023-04-30T09:56:10;101786.31;;;13.45;69.54
35224;BME280;21367;51.930;8.112;2023-04-30T10:01:16;101782.50;;;13.74;65.73
35224;BME280;21367;51.930;8.112;2023-04-30T10:06:20;101781.47;;;14.07;62.65
35224;BME280;21367;51.930;8.112;2023-04-30T10:11:30;101777.03;;;13.85;62.99
35224;BME280;21367;51.930;8.112;2023-04-30T10:16:39;101771.63;;;15.20;59.23
35224;BME280;21367;51.930;8.112;2023-04-30T10:21:46;101761.91;;;15.14;61.36
35224;BME280;21367;51.930;8.112;2023-04-30T10:26:52;101759.66;;;16.13;57.94
35224;BME280;21367;51.930;8.112;2023-04-30T10:31:58;101750.50;;;16.98;56.46
35224;BME280;21367;51.930;8.112;2023-04-30T10:37:08;101745.69;;;17.36;53.83
35224;BME280;21367;51.930;8.112;2023-04-30T10:42:16;101748.88;;;17.56;57.28
35224;BME280;21367;51.930;8.112;2023-04-30T10:47:19;101740.75;;;18.36;50.59
35224;BME280;21367;51.930;8.112;2023-04-30T10:52:30;101730.41;;;17.20;52.79
35224;BME280;21367;51.930;8.112;2023-04-30T10:57:42;101729.06;;;17.61;54.08
35224;BME280;21367;51.930;8.112;2023-04-30T11:02:47;101720.75;;;17.43;52.87
35224;BME280;21367;51.930;8.112;2023-04-30T11:07:56;101708.94;;;18.46;50.48
35224;BME280;21367;51.930;8.112;2023-04-30T11:13:05;101698.94;;;18.30;51.21
35224;BME280;21367;51.930;8.112;2023-04-30T11:18:12;101700.31;;;18.15;54.23
35224;BME280;21367;51.930;8.112;2023-04-30T11:23:21;101697.69;;;18.82;52.05
35224;BME280;21367;51.930;8.112;2023-04-30T11:28:31;101696.41;;;17.41;57.18
35224;BME280;21367;51.930;8.112;2023-04-30T11:33:35;101688.44;;;18.26;55.75
35224;BME280;21367;51.930;8.112;2023-04-30T11:38:39;101684.97;;;18.59;52.31
35224;BME280;21367;51.930;8.112;2023-04-30T11:43:46;101678.34;;;18.39;54.46
35224;BME280;21367;51.930;8.112;2023-04-30T11:48:50;101662.13;;;19.62;51.54
35224;BME280;21367;51.930;8.112;2023-04-30T11:53:53;101663.44;;;20.82;48.76
35224;BME280;21367;51.930;8.112;2023-04-30T11:59:00;101663.19;;;18.90;50.96
35224;BME280;21367;51.930;8.112;2023-04-30T12:04:04;101653.72;;;18.95;49.88
35224;BME280;21367;51.930;8.112;2023-04-30T12:09:08;101650.97;;;20.64;45.95
35224;BME280;21367;51.930;8.112;2023-04-30T12:14:14;101652.41;;;18.75;49.11
35224;BME280;21367;51.930;8.112;2023-04-30T12:19:20;101643.50;;;20.88;46.40
35224;BME280;21367;51.930;8.112;2023-04-30T12:24:26;101640.25;;;19.13;48.36
35224;BME280;21367;51.930;8.112;2023-04-30T12:29:32;101628.72;;;20.36;47.27
35224;BME280;21367;51.930;8.112;2023-04-30T12:34:36;101641.13;;;21.05;45.19
35224;BME280;21367;51.930;8.112;2023-04-30T12:39:40;101630.22;;;20.21;45.92
35224;BME280;21367;51.930;8.112;2023-04-30T12:44:46;101627.53;;;19.70;47.46
35224;BME280;21367;51.930;8.112;2023-04-30T12:49:50;101626.44;;;20.54;45.03
35224;BME280;21367;51.930;8.112;2023-04-30T12:54:55;101619.28;;;21.67;43.79
35224;BME280;21367;51.930;8.112;2023-04-30T13:00:01;101618.09;;;22.21;45.31
35224;BME280;21367;51.930;8.112;2023-04-30T13:05:06;101603.47;;;20.34;47.76
35224;BME280;21367;51.930;8.112;2023-04-30T13:10:10;101604.50;;;20.44;45.33
35224;BME280;21367;51.930;8.112;2023-04-30T13:15:17;101602.28;;;20.69;47.10
35224;BME280;21367;51.930;8.112;2023-04-30T13:20:21;101593.38;;;21.94;45.21
35224;BME280;21367;51.930;8.112;2023-04-30T13:25:26;101589.13;;;23.40;41.08
35224;BME280;21367;51.930;8.112;2023-04-30T13:30:32;101594.66;;;22.35;42.82
35224;BME280;21367;51.930;8.112;2023-04-30T13:35:36;101592.75;;;20.74;44.73
35224;BME280;21367;51.930;8.112;2023-04-30T13:40:40;101573.78;;;21.54;42.67
35224;BME280;21367;51.930;8.112;2023-04-30T13:45:46;101575.56;;;20.32;45.14
35224;BME280;21367;51.930;8.112;2023-04-30T13:50:50;101571.88;;;21.38;41.13
35224;BME280;21367;51.930;8.112;2023-04-30T13:55:57;101562.38;;;21.49;43.25
35224;BME280;21367;51.930;8.112;2023-04-30T14:01:05;101555.81;;;21.12;47.38
35224;BME280;21367;51.930;8.112;2023-04-30T14:06:09;101558.41;;;21.85;43.13
35224;BME280;21367;51.930;8.112;2023-04-30T14:11:13;101550.59;;;23.19;39.92
35224;BME280;21367;51.930;8.112;2023-04-30T14:16:19;101550.59;;;23.31;40.67
35224;BME280;21367;51.930;8.112;2023-04-30T14:21:23;101554.97;;;21.14;44.34
35224;BME280;21367;51.930;8.112;2023-04-30T14:26:28;101546.91;;;22.83;42.56
35224;BME280;21367;51.930;8.112;2023-04-30T14:31:34;101546.00;;;20.92;43.97
35224;BME280;21367;51.930;8.112;2023-04-30T14:36:38;101539.50;;;22.16;41.07
35224;BME280;21367;51.930;8.112;2023-04-30T14:41:41;101540.63;;;21.52;41.62
35224;BME280;21367;51.930;8.112;2023-04-30T14:46:48;101535.13;;;22.17;41.46
35224;BME280;21367;51.930;8.112;2023-04-30T14:51:51;101536.13;;;21.38;42.43
35224;BME280;21367;51.930;8.112;2023-04-30T14:56:55;101517.50;;;23.83;37.93
35224;BME280;21367;51.930;8.112;2023-04-30T15:02:01;101517.38;;;23.27;38.15
35224;BME280;21367;51.930;8.112;2023-04-30T15:07:05;101515.63;;;23.23;39.38
35224;BME280;21367;51.930;8.112;2023-04-30T15:12:09;101512.09;;;20.36;46.24
35224;BME280;21367;51.930;8.112;2023-04-30T15:17:15;101499.69;;;22.76;41.63
35224;BME280;21367;51.930;8.112;2023-04-30T15:22:20;101504.00;;;22.68;42.75
35224;BME280;21367;51.930;8.112;2023-04-30T15:27:24;101504.34;;;24.15;39.21
35224;BME280;21367;51.930;8.112;2023-04-30T15:32:30;101496.25;;;21.61;41.67
35224;BME280;21367;51.930;8.112;2023-04-30T15:37:33;101490.50;;;22.05;40.58
35224;BME280;21367;51.930;8.112;2023-04-30T15:42:37;101482.97;;;22.51;40.30
35224;BME280;21367;51.930;8.112;2023-04-30T15:47:44;101482.41;;;23.30;39.69
35224;BME280;21367;51.930;8.112;2023-04-30T15:52:47;101483.28;;;23.26;39.77
35224;BME280;21367;51.930;8.112;2023-04-30T15:57:51;101480.75;;;23.76;39.19
35224;BME280;21367;51.930;8.112;2023-04-30T16:02:57;101475.38;;;24.58;37.43
35224;BME280;21367;51.930;8.112;2023-04-30T16:08:01;101471.84;;;23.05;39.54
35224;BME280;21367;51.930;8.112;2023-04-30T16:13:04;101464.94;;;23.63;39.06
35224;BME280;21367;51.930;8.112;2023-04-30T16:18:11;101464.97;;;23.69;38.74
35224;BME280;21367;51.930;8.112;2023-04-30T16:23:15;101457.63;;;21.37;42.25
35224;BME280;21367;51.930;8.112;2023-04-30T16:28:19;101459.91;;;21.98;41.57
35224;BME280;21367;51.930;8.112;2023-04-30T16:33:25;101450.97;;;23.96;39.58
35224;BME280;21367;51.930;8.112;2023-04-30T16:38:29;101441.13;;;24.79;37.21
35224;BME280;21367;51.930;8.112;2023-04-30T16:43:32;101438.34;;;25.02;37.18
35224;BME280;21367;51.930;8.112;2023-04-30T16:48:39;101446.03;;;25.37;35.74
35224;BME280;21367;51.930;8.112;2023-04-30T16:53:42;101438.28;;;22.28;40.20
35224;BME280;21367;51.930;8.112;2023-04-30T16:58:46;101422.91;;;23.03;38.88
35224;BME280;21367;51.930;8.112;2023-04-30T17:03:52;101424.75;;;23.73;38.28
35224;BME280;21367;51.930;8.112;2023-04-30T17:08:56;101417.75;;;23.73;38.48
35224;BME280;21367;51.930;8.112;2023-04-30T17:14:00;101410.50;;;22.59;40.27
35224;BME280;21367;51.930;8.112;2023-04-30T17:19:06;101409.41;;;20.37;44.09
35224;BME280;21367;51.930;8.112;2023-04-30T17:24:10;101401.69;;;19.31;45.43
35224;BME280;21367;51.930;8.112;2023-04-30T17:29:13;101398.47;;;18.97;46.54
35224;BME280;21367;51.930;8.112;2023-04-30T17:34:21;101407.66;;;18.80;46.99
35224;BME280;21367;51.930;8.112;2023-04-30T17:39:26;101399.56;;;18.67;47.96
35224;BME280;21367;51.930;8.112;2023-04-30T17:44:32;101399.84;;;18.37;48.63
35224;BME280;21367;51.930;8.112;2023-04-30T17:49:38;101399.69;;;17.55;50.09
35224;BME280;21367;51.930;8.112;2023-04-30T17:54:42;101398.13;;;16.96;51.90
35224;BME280;21367;51.930;8.112;2023-04-30T17:59:46;101401.69;;;16.99;51.89
35224;BME280;21367;51.930;8.112;2023-04-30T18:04:53;101394.41;;;16.27;54.13
35224;BME280;21367;51.930;8.112;2023-04-30T18:09:56;101386.03;;;16.98;51.97
35224;BME280;21367;51.930;8.112;2023-04-30T18:15:00;101387.38;;;16.53;53.35
35224;BME280;21367;51.930;8.112;2023-04-30T18:20:09;101388.94;;;16.47;53.73
35224;BME280;21367;51.930;8.112;2023-04-30T18:25:14;101386.13;;;16.39;54.31
35224;BME280;21367;51.930;8.112;2023-04-30T18:30:18;101385.84;;;16.01;54.96
35224;BME280;21367;51.930;8.112;2023-04-30T18:35:25;101385.44;;;15.62;56.33
35224;BME280;21367;51.930;8.112;2023-04-30T18:40:29;101377.84;;;14.90;58.42
35224;BME280;21367;51.930;8.112;2023-04-30T18:45:33;101375.03;;;14.84;59.23
35224;BME280;21367;51.930;8.112;2023-04-30T18:50:39;101373.28;;;15.08;58.50
35224;BME280;21367;51.930;8.112;2023-04-30T18:55:43;101379.59;;;14.91;59.06
35224;BME280;21367;51.930;8.112;2023-04-30T19:00:46;101377.44;;;14.55;59.88
35224;BME280;21367;51.930;8.112;2023-04-30T19:05:55;101378.78;;;14.45;59.70
35224;BME280;21367;51.930;8.112;2023-04-30T19:10:58;101380.47;;;13.77;60.99
35224;BME280;21367;51.930;8.112;2023-04-30T19:16:02;101379.50;;;13.96;61.95
35224;BME280;21367;51.930;8.112;2023-04-30T19:21:09;101392.66;;;13.80;61.37
35224;BME280;21367;51.930;8.112;2023-04-30T19:26:14;101394.09;;;13.73;62.02
35224;BME280;21367;51.930;8.112;2023-04-30T19:31:18;101392.00;;;13.23;63.70
35224;BME280;21367;51.930;8.112;2023-04-30T19:36:26;101394.06;;;13.51;63.50
35224;BME280;21367;51.930;8.112;2023-04-30T19:41:31;101397.94;;;13.41;63.48
35224;BME280;21367;51.930;8.112;2023-04-30T19:46:35;101399.47;;;12.97;64.55
35224;BME280;21367;51.930;8.112;2023-04-30T19:51:41;101395.34;;;12.42;66.16
35224;BME280;21367;51.930;8.112;2023-04-30T19:56:45;101391.44;;;12.70;65.41
35224;BME280;21367;51.930;8.112;2023-04-30T20:01:52;101385.38;;;12.50;66.78
35224;BME280;21367;51.930;8.112;2023-04-30T20:06:58;101384.59;;;12.14;67.50
35224;BME280;21367;51.930;8.112;2023-04-30T20:12:01;101378.13;;;11.86;67.87
35224;BME280;21367;51.930;8.112;2023-04-30T20:17:05;101373.47;;;11.61;67.19
35224;BME280;21367;51.930;8.112;2023-04-30T20:22:11;101373.56;;;11.63;67.40
35224;BME280;21367;51.930;8.112;2023-04-30T20:27:15;101370.22;;;11.83;67.67
35224;BME280;21367;51.930;8.112;2023-04-30T20:32:19;101371.72;;;11.96;66.98
35224;BME280;21367;51.930;8.112;2023-04-30T20:37:25;101374.09;;;11.39;67.83
35224;BME280;21367;51.930;8.112;2023-04-30T20:42:29;101371.75;;;11.62;68.33
35224;BME280;21367;51.930;8.112;2023-04-30T20:47:33;101364.72;;;10.89;69.50
35224;BME280;21367;51.930;8.112;2023-04-30T20:52:39;101358.75;;;10.90;70.30
35224;BME280;21367;51.930;8.112;2023-04-30T20:57:43;101359.81;;;11.28;68.51
35224;BME280;21367;51.930;8.112;2023-04-30T21:02:47;101357.47;;;11.85;66.98
35224;BME280;21367;51.930;8.112;2023-04-30T21:07:54;101353.69;;;11.60;67.24
35224;BME280;21367;51.930;8.112;2023-04-30T21:13:01;101345.44;;;11.67;67.06
35224;BME280;21367;51.930;8.112;2023-04-30T21:18:05;101341.06;;;11.30;68.16
35224;BME280;21367;51.930;8.112;2023-04-30T21:23:11;101335.91;;;11.13;69.71
35224;BME280;21367;51.930;8.112;2023-04-30T21:28:15;101340.41;;;11.17;69.32
35224;BME280;21367;51.930;8.112;2023-04-30T21:33:18;101341.22;;;11.33;67.98
35224;BME280;21367;51.930;8.112;2023-04-30T21:38:24;101339.31;;;11.29;67.49
35224;BME280;21367;51.930;8.112;2023-04-30T21:43:28;101344.47;;;11.29;67.05
35224;BME280;21367;51.930;8.112;2023-04-30T21:48:32;101338.75;;;11.19;66.93
35224;BME280;21367;51.930;8.112;2023-04-30T21:53:40;101343.31;;;11.06;67.23
35224;BME280;21367;51.930;8.112;2023-04-30T21:58:45;101332.56;;;10.97;67.77
35224;BME280;21367;51.930;8.112;2023-04-30T22:03:48;101325.84;;;10.83;68.61
35224;BME280;21367;51.930;8.112;2023-04-30T22:08:54;101321.69;;;10.69;68.66
35224;BME280;21367;51.930;8.112;2023-04-30T22:13:58;101328.03;;;10.59;68.98
35224;BME280;21367;51.930;8.112;2023-04-30T22:19:03;101318.41;;;10.55;69.29
35224;BME280;21367;51.930;8.112;2023-04-30T22:24:09;101311.50;;;10.37;69.70
35224;BME280;21367;51.930;8.112;2023-04-30T22:29:15;101312.44;;;10.39;69.63
35224;BME280;21367;51.930;8.112;2023-04-30T22:34:19;101308.34;;;10.27;70.04
35224;BME280;21367;51.930;8.112;2023-04-30T22:39:25;101303.34;;;10.13;70.46
35224;BME280;21367;51.930;8.112;2023-04-30T22:44:30;101300.44;;;9.60;71.34
35224;BME280;21367;51.930;8.112;2023-04-30T22:49:34;101295.63;;;9.97;70.97
35224;BME280;21367;51.930;8.112;2023-04-30T22:54:41;101291.09;;;9.93;71.44
35224;BME280;21367;51.930;8.112;2023-04-30T22:59:44;101281.50;;;9.89;71.23
35224;BME280;21367;51.930;8.112;2023-04-30T23:04:48;101285.72;;;9.72;72.14
35224;BME280;21367;51.930;8.112;2023-04-30T23:09:54;101287.44;;;9.57;72.52
35224;BME280;21367;51.930;8.112;2023-04-30T23:14:58;101272.59;;;9.51;72.22
35224;BME280;21367;51.930;8.112;2023-04-30T23:20:02;101279.69;;;9.40;72.61
35224;BME280;21367;51.930;8.112;2023-04-30T23:25:09;101285.25;;;9.33;72.68
35224;BME280;21367;51.930;8.112;2023-04-30T23:30:14;101280.94;;;9.32;72.82
35224;BME280;21367;51.930;8.112;2023-04-30T23:35:17;101276.84;;;9.36;72.61
35224;BME280;21367;51.930;8.112;2023-04-30T23:40:24;101268.41;;;9.22;73.26
35224;BME280;21367;51.930;8.112;2023-04-30T23:45:27;101263.78;;;9.31;73.40
35224;BME280;21367;51.930;8.112;2023-04-30T23:50:31;101255.13;;;9.14;73.31
35224;BME280;21367;51.930;8.112;2023-04-30T23:55:39;101249.06;;;8.97;73.79
